Portada
METAR-TAF:

METAR-TAF

Aeropuertos :

Aeropuerto Internacional de Vladivostok

Vladivostok, Rusia

latitud: 43-07N, longitud: 131-56E, altitud: 184 m

Observación

El informe se hizo hace 44 minutos, a las 23:00 UTC
Viento calma
Temperatura 14°C
Humedad 100%
Presión 1006 hPa
Visibilidad: 9000 m
Escasas nubes a una altura de 700 ft
Cielo nuboso a una altura de 2000 ft, Cumulonimbus.
chaparrones de lluvia

METAR: UHWW 212300Z 00000MPS 9000 -SHRA FEW007 BKN020CB 14/14 Q1006 R25L/290160 NOSIG RMK QFE753

Hora: 09:44 (23:44 UTC)

Pronóstico

El informe se hizo hace 44 minutos, a las 23:00 UTC
Pronóstico válido del 22 a las 00 UTC al 22 a las 24 UTC
Viento 6 kt del suroeste con ráfagas de 16 kt
Visibilidad: 6000 m
Nubes dispersas a una altura de 1000 ft
Cielo nuboso a una altura de 1600 ft, Cumulonimbus.
chaparrones de lluvia,

TAF: UHWW 212300Z 2200/2224 22003G08MPS 6000 -SHRA SCT010 BKN016CB

Observaciones y pronósticos meteorológicos de más de 4000 aeropuertos (mensajes METAR y TAF).

Los puntos amarillos y rojos representan las estaciones disponibles.

Ponga el ratón en el punto deseado para ver el nombre de la estación.

Haga clic para ver las observaciones y los pronósticos meteorológicos.

Para cambiar el mapa : haga clic en los botones verdes con una cruz de color negro para hacer un zoom, en el botón verde con un guión para alejar o en las flechas verdes para mapas adyacentes.


METAR-TAF: